sensor_id;sensor_type;location;lat;lon;timestamp;pressure;altitude;pressure_sealevel;temperature;humidity
17505;BME280;8870;50.950;11.762;2023-04-22T00:03:58;97963.19;;;10.71;100.00
17505;BME280;8870;50.950;11.762;2023-04-22T00:09:16;97952.09;;;10.66;100.00
17505;BME280;8870;50.950;11.762;2023-04-22T00:14:50;97951.78;;;10.61;100.00
17505;BME280;8870;50.950;11.762;2023-04-22T00:20:09;97942.34;;;10.57;100.00
17505;BME280;8870;50.950;11.762;2023-04-22T00:25:42;97939.34;;;10.52;100.00
17505;BME280;8870;50.950;11.762;2023-04-22T00:31:03;97935.50;;;10.46;100.00
17505;BME280;8870;50.950;11.762;2023-04-22T00:36:34;97926.41;;;10.39;100.00
17505;BME280;8870;50.950;11.762;2023-04-22T00:41:52;97929.78;;;10.32;100.00
17505;BME280;8870;50.950;11.762;2023-04-22T00:47:28;97930.97;;;10.22;100.00
17505;BME280;8870;50.950;11.762;2023-04-22T00:52:47;97930.28;;;10.20;100.00
17505;BME280;8870;50.950;11.762;2023-04-22T00:58:20;97928.59;;;10.18;100.00
17505;BME280;8870;50.950;11.762;2023-04-22T01:03:42;97919.38;;;10.21;100.00
17505;BME280;8870;50.950;11.762;2023-04-22T01:09:13;97920.38;;;10.20;100.00
17505;BME280;8870;50.950;11.762;2023-04-22T01:14:31;97926.44;;;10.22;100.00
17505;BME280;8870;50.950;11.762;2023-04-22T01:19:59;97930.63;;;10.25;100.00
17505;BME280;8870;50.950;11.762;2023-04-22T01:25:28;97926.25;;;10.24;100.00
17505;BME280;8870;50.950;11.762;2023-04-22T01:30:47;97924.56;;;10.23;100.00
17505;BME280;8870;50.950;11.762;2023-04-22T01:36:18;97928.28;;;10.22;100.00
17505;BME280;8870;50.950;11.762;2023-04-22T01:41:40;97924.91;;;10.20;100.00
17505;BME280;8870;50.950;11.762;2023-04-22T01:47:12;97918.88;;;10.09;100.00
17505;BME280;8870;50.950;11.762;2023-04-22T01:52:31;97922.94;;;10.05;100.00
17505;BME280;8870;50.950;11.762;2023-04-22T01:58:05;97925.59;;;9.97;100.00
17505;BME280;8870;50.950;11.762;2023-04-22T02:03:24;97925.63;;;9.80;100.00
17505;BME280;8870;50.950;11.762;2023-04-22T02:08:55;97922.59;;;9.75;100.00
17505;BME280;8870;50.950;11.762;2023-04-22T02:14:16;97920.09;;;9.74;100.00
17505;BME280;8870;50.950;11.762;2023-04-22T02:19:47;97919.91;;;9.75;100.00
17505;BME280;8870;50.950;11.762;2023-04-22T02:25:07;97918.22;;;9.74;100.00
17505;BME280;8870;50.950;11.762;2023-04-22T02:30:41;97910.00;;;9.76;100.00
17505;BME280;8870;50.950;11.762;2023-04-22T02:35:59;97917.91;;;9.77;100.00
17505;BME280;8870;50.950;11.762;2023-04-22T02:41:30;97915.38;;;9.76;100.00
17505;BME280;8870;50.950;11.762;2023-04-22T02:46:51;97911.00;;;9.75;100.00
17505;BME280;8870;50.950;11.762;2023-04-22T02:52:24;97916.53;;;9.73;100.00
17505;BME280;8870;50.950;11.762;2023-04-22T02:57:42;97908.47;;;9.73;100.00
17505;BME280;8870;50.950;11.762;2023-04-22T03:03:16;97904.09;;;9.72;100.00
17505;BME280;8870;50.950;11.762;2023-04-22T03:08:34;97902.41;;;9.71;100.00
17505;BME280;8870;50.950;11.762;2023-04-22T03:14:05;97899.72;;;9.71;100.00
17505;BME280;8870;50.950;11.762;2023-04-22T03:19:26;97894.84;;;9.66;100.00
17505;BME280;8870;50.950;11.762;2023-04-22T03:24:57;97904.94;;;9.64;100.00
17505;BME280;8870;50.950;11.762;2023-04-22T03:30:21;97902.94;;;9.58;100.00
17505;BME280;8870;50.950;11.762;2023-04-22T03:35:55;97909.66;;;9.54;100.00
17505;BME280;8870;50.950;11.762;2023-04-22T03:41:14;97911.69;;;9.52;100.00
17505;BME280;8870;50.950;11.762;2023-04-22T03:46:47;97906.97;;;9.46;100.00
17505;BME280;8870;50.950;11.762;2023-04-22T03:52:21;97906.28;;;9.44;100.00
17505;BME280;8870;50.950;11.762;2023-04-22T03:57:53;97903.44;;;9.45;100.00
17505;BME280;8870;50.950;11.762;2023-04-22T04:03:12;97901.59;;;9.46;100.00
17505;BME280;8870;50.950;11.762;2023-04-22T04:08:49;97902.09;;;9.49;100.00
17505;BME280;8870;50.950;11.762;2023-04-22T04:14:08;97909.00;;;9.52;100.00
17505;BME280;8870;50.950;11.762;2023-04-22T04:19:39;97915.03;;;9.54;100.00
17505;BME280;8870;50.950;11.762;2023-04-22T04:25:00;97913.88;;;9.56;100.00
17505;BME280;8870;50.950;11.762;2023-04-22T04:30:33;97907.47;;;9.58;100.00
17505;BME280;8870;50.950;11.762;2023-04-22T04:35:52;97912.34;;;9.62;100.00
17505;BME280;8870;50.950;11.762;2023-04-22T04:41:27;97906.28;;;9.68;100.00
17505;BME280;8870;50.950;11.762;2023-04-22T04:46:46;97916.22;;;9.76;100.00
17505;BME280;8870;50.950;11.762;2023-04-22T04:52:18;97916.06;;;9.86;100.00
17505;BME280;8870;50.950;11.762;2023-04-22T04:57:52;97915.53;;;9.91;100.00
17505;BME280;8870;50.950;11.762;2023-04-22T05:03:11;97916.72;;;9.96;100.00
17505;BME280;8870;50.950;11.762;2023-04-22T05:08:42;97926.78;;;10.02;100.00
17505;BME280;8870;50.950;11.762;2023-04-22T05:14:04;97923.56;;;10.07;100.00
17505;BME280;8870;50.950;11.762;2023-04-22T05:19:35;97919.03;;;10.16;100.00
17505;BME280;8870;50.950;11.762;2023-04-22T05:24:54;97923.38;;;10.25;100.00
17505;BME280;8870;50.950;11.762;2023-04-22T05:30:37;97924.72;;;10.29;100.00
17505;BME280;8870;50.950;11.762;2023-04-22T05:35:55;97924.38;;;10.32;100.00
17505;BME280;8870;50.950;11.762;2023-04-22T05:41:28;97935.50;;;10.38;100.00
17505;BME280;8870;50.950;11.762;2023-04-22T05:46:49;97938.19;;;10.46;100.00
17505;BME280;8870;50.950;11.762;2023-04-22T05:52:20;97945.38;;;10.62;100.00
17505;BME280;8870;50.950;11.762;2023-04-22T05:57:46;97935.91;;;10.74;100.00
17505;BME280;8870;50.950;11.762;2023-04-22T06:03:30;97933.47;;;10.88;100.00
17505;BME280;8870;50.950;11.762;2023-04-22T06:08:48;97925.03;;;10.99;100.00
17505;BME280;8870;50.950;11.762;2023-04-22T06:14:21;97929.69;;;11.05;100.00
17505;BME280;8870;50.950;11.762;2023-04-22T06:19:42;97937.03;;;11.20;100.00
17505;BME280;8870;50.950;11.762;2023-04-22T06:25:13;97928.19;;;11.34;100.00
17505;BME280;8870;50.950;11.762;2023-04-22T06:30:32;97931.31;;;11.46;100.00
17505;BME280;8870;50.950;11.762;2023-04-22T06:36:07;97927.63;;;11.62;100.00
17505;BME280;8870;50.950;11.762;2023-04-22T06:41:30;97932.25;;;11.77;100.00
17505;BME280;8870;50.950;11.762;2023-04-22T06:47:23;97930.06;;;11.95;100.00
17505;BME280;8870;50.950;11.762;2023-04-22T06:52:53;97929.22;;;12.18;100.00
17505;BME280;8870;50.950;11.762;2023-04-22T06:58:24;97924.41;;;12.43;100.00
17505;BME280;8870;50.950;11.762;2023-04-22T07:03:43;97922.72;;;12.57;100.00
17505;BME280;8870;50.950;11.762;2023-04-22T07:09:18;97914.63;;;12.87;100.00
17505;BME280;8870;50.950;11.762;2023-04-22T07:14:37;97916.16;;;13.12;100.00
17505;BME280;8870;50.950;11.762;2023-04-22T07:20:09;97927.75;;;13.42;100.00
17505;BME280;8870;50.950;11.762;2023-04-22T07:25:30;97912.63;;;13.69;100.00
17505;BME280;8870;50.950;11.762;2023-04-22T07:31:01;97905.31;;;13.92;100.00
17505;BME280;8870;50.950;11.762;2023-04-22T07:36:19;97909.25;;;14.17;100.00
17505;BME280;8870;50.950;11.762;2023-04-22T07:41:55;97904.19;;;14.36;100.00
17505;BME280;8870;50.950;11.762;2023-04-22T07:47:28;97884.09;;;14.59;100.00
17505;BME280;8870;50.950;11.762;2023-04-22T07:52:46;97893.81;;;14.82;100.00
17505;BME280;8870;50.950;11.762;2023-04-22T07:58:20;97880.38;;;15.08;100.00
17505;BME280;8870;50.950;11.762;2023-04-22T08:03:38;97879.81;;;15.33;100.00
17505;BME280;8870;50.950;11.762;2023-04-22T08:09:09;97877.34;;;15.59;100.00
17505;BME280;8870;50.950;11.762;2023-04-22T08:14:30;97882.34;;;15.82;100.00
17505;BME280;8870;50.950;11.762;2023-04-22T08:20:01;97876.78;;;16.04;100.00
17505;BME280;8870;50.950;11.762;2023-04-22T08:25:20;97883.84;;;16.18;100.00
17505;BME280;8870;50.950;11.762;2023-04-22T08:30:55;97872.53;;;16.35;90.06
17505;BME280;8870;50.950;11.762;2023-04-22T08:36:13;97868.09;;;16.60;89.96
17505;BME280;8870;50.950;11.762;2023-04-22T08:41:48;97871.16;;;16.77;84.94
17505;BME280;8870;50.950;11.762;2023-04-22T08:47:10;97871.50;;;17.08;87.10
17505;BME280;8870;50.950;11.762;2023-04-22T08:52:42;97872.56;;;17.39;74.02
17505;BME280;8870;50.950;11.762;2023-04-22T08:58:01;97867.00;;;17.59;77.63
17505;BME280;8870;50.950;11.762;2023-04-22T09:03:38;97872.22;;;17.61;70.69
17505;BME280;8870;50.950;11.762;2023-04-22T09:08:57;97863.94;;;17.74;68.84
17505;BME280;8870;50.950;11.762;2023-04-22T09:14:30;97857.09;;;17.90;67.23
17505;BME280;8870;50.950;11.762;2023-04-22T09:19:59;97859.88;;;18.15;63.25
17505;BME280;8870;50.950;11.762;2023-04-22T09:25:32;97853.44;;;18.28;62.69
17505;BME280;8870;50.950;11.762;2023-04-22T09:30:50;97854.13;;;18.42;70.99
17505;BME280;8870;50.950;11.762;2023-04-22T09:36:25;97849.75;;;18.60;72.39
17505;BME280;8870;50.950;11.762;2023-04-22T09:41:44;97842.75;;;18.83;72.60
17505;BME280;8870;50.950;11.762;2023-04-22T09:47:02;97838.59;;;18.99;74.75
17505;BME280;8870;50.950;11.762;2023-04-22T09:52:35;97842.81;;;19.13;68.00
17505;BME280;8870;50.950;11.762;2023-04-22T09:58:08;97837.38;;;19.25;69.45
17505;BME280;8870;50.950;11.762;2023-04-22T10:03:27;97825.84;;;19.53;67.20
17505;BME280;8870;50.950;11.762;2023-04-22T10:09:02;97825.41;;;19.68;60.22
17505;BME280;8870;50.950;11.762;2023-04-22T10:14:21;97822.75;;;19.92;59.33
17505;BME280;8870;50.950;11.762;2023-04-22T10:19:53;97814.63;;;19.97;58.20
17505;BME280;8870;50.950;11.762;2023-04-22T10:25:20;97806.81;;;20.13;57.06
17505;BME280;8870;50.950;11.762;2023-04-22T10:30:52;97800.38;;;20.31;52.42
17505;BME280;8870;50.950;11.762;2023-04-22T10:36:16;97793.78;;;20.44;55.26
17505;BME280;8870;50.950;11.762;2023-04-22T10:41:57;97788.72;;;20.64;54.03
17505;BME280;8870;50.950;11.762;2023-04-22T10:47:28;97792.75;;;20.86;53.04
17505;BME280;8870;50.950;11.762;2023-04-22T10:53:33;97780.59;;;20.93;51.61
17505;BME280;8870;50.950;11.762;2023-04-22T10:58:54;97773.75;;;21.08;54.25
17505;BME280;8870;50.950;11.762;2023-04-22T11:04:26;97773.44;;;21.21;53.72
17505;BME280;8870;50.950;11.762;2023-04-22T11:09:45;97769.81;;;21.33;58.06
17505;BME280;8870;50.950;11.762;2023-04-22T11:15:20;97769.97;;;21.43;49.32
17505;BME280;8870;50.950;11.762;2023-04-22T11:20:39;97766.81;;;21.51;51.67
17505;BME280;8870;50.950;11.762;2023-04-22T11:26:12;97768.19;;;21.66;53.60
17505;BME280;8870;50.950;11.762;2023-04-22T11:31:34;97762.84;;;21.76;52.53
17505;BME280;8870;50.950;11.762;2023-04-22T11:37:05;97757.03;;;21.90;51.90
17505;BME280;8870;50.950;11.762;2023-04-22T11:42:23;97756.53;;;21.93;51.14
17505;BME280;8870;50.950;11.762;2023-04-22T11:47:58;97753.34;;;22.01;52.12
17505;BME280;8870;50.950;11.762;2023-04-22T11:53:23;97748.84;;;22.12;50.53
17505;BME280;8870;50.950;11.762;2023-04-22T11:58:55;97751.34;;;22.13;50.74
17505;BME280;8870;50.950;11.762;2023-04-22T12:04:15;97752.56;;;22.23;50.56
17505;BME280;8870;50.950;11.762;2023-04-22T12:09:47;97747.97;;;22.28;48.27
17505;BME280;8870;50.950;11.762;2023-04-22T12:15:12;97744.78;;;22.37;47.67
17505;BME280;8870;50.950;11.762;2023-04-22T12:20:46;97746.31;;;22.27;47.91
17505;BME280;8870;50.950;11.762;2023-04-22T12:26:05;97736.03;;;22.40;52.46
17505;BME280;8870;50.950;11.762;2023-04-22T12:31:40;97721.25;;;22.63;51.01
17505;BME280;8870;50.950;11.762;2023-04-22T12:37:01;97717.06;;;22.83;48.56
17505;BME280;8870;50.950;11.762;2023-04-22T12:42:33;97709.97;;;23.14;52.16
17505;BME280;8870;50.950;11.762;2023-04-22T12:47:51;97705.53;;;23.41;51.66
17505;BME280;8870;50.950;11.762;2023-04-22T12:53:26;97708.38;;;23.51;44.38
17505;BME280;8870;50.950;11.762;2023-04-22T12:58:57;97702.28;;;23.49;45.57
17505;BME280;8870;50.950;11.762;2023-04-22T13:04:17;97690.97;;;23.78;50.18
17505;BME280;8870;50.950;11.762;2023-04-22T13:09:52;97683.75;;;24.09;45.89
17505;BME280;8870;50.950;11.762;2023-04-22T13:15:11;97670.34;;;24.28;49.29
17505;BME280;8870;50.950;11.762;2023-04-22T13:20:42;97669.78;;;24.26;42.83
17505;BME280;8870;50.950;11.762;2023-04-22T13:26:02;97656.84;;;24.37;42.88
17505;BME280;8870;50.950;11.762;2023-04-22T13:31:34;97647.31;;;24.60;40.57
17505;BME280;8870;50.950;11.762;2023-04-22T13:36:52;97647.94;;;24.99;45.69
17505;BME280;8870;50.950;11.762;2023-04-22T13:42:25;97634.44;;;25.28;43.44
17505;BME280;8870;50.950;11.762;2023-04-22T13:47:52;97633.31;;;25.55;43.46
17505;BME280;8870;50.950;11.762;2023-04-22T13:53:24;97628.53;;;25.92;43.47
17505;BME280;8870;50.950;11.762;2023-04-22T13:58:44;97614.63;;;26.23;43.96
17505;BME280;8870;50.950;11.762;2023-04-22T14:04:16;97611.72;;;26.49;40.65
17505;BME280;8870;50.950;11.762;2023-04-22T14:09:34;97608.94;;;26.54;42.75
17505;BME280;8870;50.950;11.762;2023-04-22T14:15:08;97600.19;;;26.36;39.03
17505;BME280;8870;50.950;11.762;2023-04-22T14:20:27;97602.91;;;25.86;41.31
17505;BME280;8870;50.950;11.762;2023-04-22T14:25:58;97592.78;;;25.56;39.21
17505;BME280;8870;50.950;11.762;2023-04-22T14:31:19;97595.53;;;25.50;38.43
17505;BME280;8870;50.950;11.762;2023-04-22T14:36:51;97590.84;;;25.35;37.21
17505;BME280;8870;50.950;11.762;2023-04-22T14:42:09;97582.34;;;25.21;38.46
17505;BME280;8870;50.950;11.762;2023-04-22T14:47:43;97584.25;;;25.21;37.89
17505;BME280;8870;50.950;11.762;2023-04-22T14:53:02;97576.84;;;24.85;39.29
17505;BME280;8870;50.950;11.762;2023-04-22T14:58:33;97574.56;;;24.41;36.99
17505;BME280;8870;50.950;11.762;2023-04-22T15:03:53;97571.25;;;24.28;41.10
17505;BME280;8870;50.950;11.762;2023-04-22T15:09:25;97580.34;;;24.50;40.09
17505;BME280;8870;50.950;11.762;2023-04-22T15:14:44;97564.69;;;24.50;41.38
17505;BME280;8870;50.950;11.762;2023-04-22T15:20:17;97558.06;;;24.51;40.10
17505;BME280;8870;50.950;11.762;2023-04-22T15:25:36;97562.44;;;24.42;41.15
17505;BME280;8870;50.950;11.762;2023-04-22T15:31:08;97556.09;;;24.21;41.31
17505;BME280;8870;50.950;11.762;2023-04-22T15:36:28;97551.94;;;24.18;42.58
17505;BME280;8870;50.950;11.762;2023-04-22T15:42:00;97550.53;;;24.05;42.86
17505;BME280;8870;50.950;11.762;2023-04-22T15:47:18;97549.19;;;24.13;44.77
17505;BME280;8870;50.950;11.762;2023-04-22T15:52:51;97549.44;;;24.11;43.05
17505;BME280;8870;50.950;11.762;2023-04-22T15:58:23;97543.38;;;24.04;45.47
17505;BME280;8870;50.950;11.762;2023-04-22T16:03:42;97545.34;;;24.14;44.63
17505;BME280;8870;50.950;11.762;2023-04-22T16:09:16;97545.63;;;24.28;42.78
17505;BME280;8870;50.950;11.762;2023-04-22T16:14:35;97539.06;;;24.50;44.82
17505;BME280;8870;50.950;11.762;2023-04-22T16:20:07;97530.03;;;24.70;43.46
17505;BME280;8870;50.950;11.762;2023-04-22T16:25:29;97527.53;;;24.73;39.17
17505;BME280;8870;50.950;11.762;2023-04-22T16:31:00;97517.34;;;24.69;39.20
17505;BME280;8870;50.950;11.762;2023-04-22T16:36:19;97514.56;;;24.43;40.57
17505;BME280;8870;50.950;11.762;2023-04-22T16:41:54;97505.75;;;24.36;39.52
17505;BME280;8870;50.950;11.762;2023-04-22T16:47:16;97508.16;;;24.11;40.53
17505;BME280;8870;50.950;11.762;2023-04-22T16:52:48;97505.72;;;24.20;42.48
17505;BME280;8870;50.950;11.762;2023-04-22T16:58:21;97497.72;;;24.08;41.32
17505;BME280;8870;50.950;11.762;2023-04-22T17:03:39;97499.59;;;23.92;43.46
17505;BME280;8870;50.950;11.762;2023-04-22T17:09:10;97508.59;;;23.77;41.91
17505;BME280;8870;50.950;11.762;2023-04-22T17:14:30;97498.69;;;23.71;44.34
17505;BME280;8870;50.950;11.762;2023-04-22T17:20:02;97497.84;;;23.65;44.80
17505;BME280;8870;50.950;11.762;2023-04-22T17:25:21;97490.63;;;23.49;44.96
17505;BME280;8870;50.950;11.762;2023-04-22T17:30:54;97486.19;;;23.32;45.95
17505;BME280;8870;50.950;11.762;2023-04-22T17:36:27;97487.66;;;23.13;47.60
17505;BME280;8870;50.950;11.762;2023-04-22T17:41:46;97489.66;;;22.80;48.12
17505;BME280;8870;50.950;11.762;2023-04-22T17:47:21;97495.19;;;22.47;48.63
17505;BME280;8870;50.950;11.762;2023-04-22T17:52:47;97486.84;;;22.09;48.60
17505;BME280;8870;50.950;11.762;2023-04-22T17:58:19;97476.66;;;21.77;50.38
17505;BME280;8870;50.950;11.762;2023-04-22T18:03:40;97471.81;;;21.40;51.23
17505;BME280;8870;50.950;11.762;2023-04-22T18:09:11;97486.13;;;21.03;52.19
17505;BME280;8870;50.950;11.762;2023-04-22T18:14:30;97495.75;;;20.71;53.44
17505;BME280;8870;50.950;11.762;2023-04-22T18:20:07;97491.78;;;20.45;54.15
17505;BME280;8870;50.950;11.762;2023-04-22T18:25:29;97493.09;;;20.08;55.05
17505;BME280;8870;50.950;11.762;2023-04-22T18:31:00;97496.00;;;19.90;56.35
17505;BME280;8870;50.950;11.762;2023-04-22T18:36:21;97499.06;;;19.64;56.56
17505;BME280;8870;50.950;11.762;2023-04-22T18:41:53;97510.03;;;19.40;57.80
17505;BME280;8870;50.950;11.762;2023-04-22T18:47:11;97510.44;;;19.20;59.00
17505;BME280;8870;50.950;11.762;2023-04-22T18:52:44;97504.66;;;19.05;59.57
17505;BME280;8870;50.950;11.762;2023-04-22T18:58:03;97508.88;;;18.89;61.08
17505;BME280;8870;50.950;11.762;2023-04-22T19:03:34;97518.41;;;18.74;62.10
17505;BME280;8870;50.950;11.762;2023-04-22T19:08:56;97517.78;;;18.60;63.56
17505;BME280;8870;50.950;11.762;2023-04-22T19:14:28;97521.09;;;18.51;63.63
17505;BME280;8870;50.950;11.762;2023-04-22T19:19:46;97522.97;;;18.38;64.16
17505;BME280;8870;50.950;11.762;2023-04-22T19:25:20;97526.16;;;18.35;62.08
17505;BME280;8870;50.950;11.762;2023-04-22T19:30:38;97535.22;;;18.17;63.97
17505;BME280;8870;50.950;11.762;2023-04-22T19:36:10;97533.63;;;17.97;66.94
17505;BME280;8870;50.950;11.762;2023-04-22T19:41:31;97529.59;;;18.00;65.40
17505;BME280;8870;50.950;11.762;2023-04-22T19:47:02;97533.41;;;17.99;64.43
17505;BME280;8870;50.950;11.762;2023-04-22T19:52:21;97532.34;;;18.00;65.50
17505;BME280;8870;50.950;11.762;2023-04-22T19:57:56;97529.00;;;17.98;66.59
17505;BME280;8870;50.950;11.762;2023-04-22T20:03:14;97527.34;;;17.97;68.90
17505;BME280;8870;50.950;11.762;2023-04-22T20:08:46;97528.38;;;17.96;69.70
17505;BME280;8870;50.950;11.762;2023-04-22T20:14:09;97525.88;;;17.94;72.10
17505;BME280;8870;50.950;11.762;2023-04-22T20:19:41;97527.72;;;17.82;76.56
17505;BME280;8870;50.950;11.762;2023-04-22T20:25:00;97525.94;;;17.76;76.32
17505;BME280;8870;50.950;11.762;2023-04-22T20:30:36;97518.22;;;17.73;78.60
17505;BME280;8870;50.950;11.762;2023-04-22T20:35:55;97510.50;;;17.69;78.46
17505;BME280;8870;50.950;11.762;2023-04-22T20:41:50;97514.72;;;17.65;78.51
17505;BME280;8870;50.950;11.762;2023-04-22T20:47:14;97517.53;;;17.59;79.35
17505;BME280;8870;50.950;11.762;2023-04-22T20:53:02;97529.50;;;17.58;78.41
17505;BME280;8870;50.950;11.762;2023-04-22T20:58:21;97544.63;;;17.53;78.81
17505;BME280;8870;50.950;11.762;2023-04-22T21:03:56;97534.28;;;17.44;82.94
17505;BME280;8870;50.950;11.762;2023-04-22T21:09:19;97539.13;;;17.23;90.67
17505;BME280;8870;50.950;11.762;2023-04-22T21:14:53;97526.81;;;17.20;94.13
17505;BME280;8870;50.950;11.762;2023-04-22T21:20:15;97521.81;;;17.17;92.47
17505;BME280;8870;50.950;11.762;2023-04-22T21:25:49;97529.72;;;17.19;89.72
17505;BME280;8870;50.950;11.762;2023-04-22T21:31:23;97542.28;;;17.20;89.27
17505;BME280;8870;50.950;11.762;2023-04-22T21:36:44;97540.25;;;17.15;91.28
17505;BME280;8870;50.950;11.762;2023-04-22T21:42:15;97542.88;;;17.03;92.98
17505;BME280;8870;50.950;11.762;2023-04-22T21:47:33;97541.59;;;17.06;93.64
17505;BME280;8870;50.950;11.762;2023-04-22T21:53:07;97546.19;;;17.05;93.69
17505;BME280;8870;50.950;11.762;2023-04-22T21:58:41;97542.03;;;17.03;94.63
17505;BME280;8870;50.950;11.762;2023-04-22T22:03:59;97553.59;;;16.98;96.51
17505;BME280;8870;50.950;11.762;2023-04-22T22:09:34;97550.75;;;16.86;99.97
17505;BME280;8870;50.950;11.762;2023-04-22T22:14:52;97547.69;;;16.76;100.00
17505;BME280;8870;50.950;11.762;2023-04-22T22:20:23;97543.97;;;16.70;100.00
17505;BME280;8870;50.950;11.762;2023-04-22T22:25:46;97544.66;;;16.66;100.00
17505;BME280;8870;50.950;11.762;2023-04-22T22:31:18;97552.22;;;16.63;100.00
17505;BME280;8870;50.950;11.762;2023-04-22T22:36:46;97556.00;;;16.62;100.00
17505;BME280;8870;50.950;11.762;2023-04-22T22:42:20;97563.72;;;16.59;100.00
17505;BME280;8870;50.950;11.762;2023-04-22T22:47:38;97549.97;;;16.54;100.00
17505;BME280;8870;50.950;11.762;2023-04-22T22:53:03;97556.91;;;16.49;100.00
17505;BME280;8870;50.950;11.762;2023-04-22T22:58:37;97561.34;;;16.44;100.00
17505;BME280;8870;50.950;11.762;2023-04-22T23:03:55;97554.91;;;16.38;100.00
17505;BME280;8870;50.950;11.762;2023-04-22T23:09:26;97561.63;;;16.36;100.00
17505;BME280;8870;50.950;11.762;2023-04-22T23:14:47;97554.31;;;16.29;100.00
17505;BME280;8870;50.950;11.762;2023-04-22T23:20:18;97555.22;;;16.23;100.00
17505;BME280;8870;50.950;11.762;2023-04-22T23:25:38;97553.38;;;16.17;100.00
17505;BME280;8870;50.950;11.762;2023-04-22T23:31:13;97541.56;;;16.05;100.00
17505;BME280;8870;50.950;11.762;2023-04-22T23:36:35;97543.28;;;15.92;100.00
17505;BME280;8870;50.950;11.762;2023-04-22T23:42:06;97541.81;;;15.83;100.00
17505;BME280;8870;50.950;11.762;2023-04-22T23:47:27;97532.84;;;15.82;100.00
17505;BME280;8870;50.950;11.762;2023-04-22T23:52:45;97537.25;;;15.83;100.00
17505;BME280;8870;50.950;11.762;2023-04-22T23:58:16;97540.38;;;15.80;100.00
